createdAt,value
2022-09-30T00:00:17.429Z,100.00
2022-09-30T00:02:44.668Z,100.00
2022-09-30T00:05:11.170Z,100.00
2022-09-30T00:07:37.565Z,100.00
2022-09-30T00:10:04.407Z,100.00
2022-09-30T00:12:30.982Z,100.00
2022-09-30T00:14:57.436Z,100.00
2022-09-30T00:17:23.886Z,100.00
2022-09-30T00:19:50.345Z,100.00
2022-09-30T00:22:16.748Z,100.00
2022-09-30T00:24:43.149Z,100.00
2022-09-30T00:27:09.558Z,100.00
2022-09-30T00:29:35.975Z,100.00
2022-09-30T00:32:02.442Z,100.00
2022-09-30T00:34:28.910Z,100.00
2022-09-30T00:36:58.387Z,100.00
2022-09-30T00:39:25.743Z,100.00
2022-09-30T00:41:53.756Z,100.00
2022-09-30T00:44:58.898Z,100.00
2022-09-30T00:47:25.312Z,100.00
2022-09-30T00:49:51.769Z,100.00
2022-09-30T00:52:18.417Z,100.00
2022-09-30T00:54:44.903Z,100.00
2022-09-30T00:57:11.301Z,100.00
2022-09-30T00:59:38.999Z,100.00
2022-09-30T01:02:05.890Z,100.00
2022-09-30T01:04:32.385Z,100.00
2022-09-30T01:06:59.605Z,100.00
2022-09-30T01:09:26.129Z,100.00
2022-09-30T01:11:52.550Z,100.00
2022-09-30T01:14:21.653Z,100.00
2022-09-30T01:16:48.062Z,100.00
2022-09-30T01:19:17.560Z,100.00
2022-09-30T01:22:02.982Z,100.00
2022-09-30T01:24:44.652Z,100.00
2022-09-30T01:27:29.941Z,100.00
2022-09-30T01:29:56.372Z,100.00
2022-09-30T01:32:45.165Z,100.00
2022-09-30T01:35:15.516Z,100.00
2022-09-30T01:37:41.863Z,100.00
2022-09-30T01:40:22.669Z,100.00
2022-09-30T01:42:49.979Z,100.00
2022-09-30T01:45:17.498Z,100.00
2022-09-30T01:48:13.458Z,100.00
2022-09-30T01:50:44.734Z,100.00
2022-09-30T01:53:15.230Z,100.00
2022-09-30T01:55:44.646Z,100.00
2022-09-30T01:58:14.048Z,100.00
2022-09-30T02:00:41.122Z,100.00
2022-09-30T02:03:10.569Z,100.00
2022-09-30T02:05:38.291Z,100.00
2022-09-30T02:08:06.201Z,100.00
2022-09-30T02:10:32.697Z,100.00
2022-09-30T02:13:05.220Z,100.00
2022-09-30T02:15:38.464Z,100.00
2022-09-30T02:18:10.811Z,100.00
2022-09-30T02:20:38.375Z,100.00
2022-09-30T02:23:04.915Z,100.00
2022-09-30T02:25:34.055Z,100.00
2022-09-30T02:28:01.779Z,100.00
2022-09-30T02:30:28.570Z,100.00
2022-09-30T02:33:01.486Z,100.00
2022-09-30T02:35:32.428Z,100.00
2022-09-30T02:37:59.976Z,100.00
2022-09-30T02:40:26.388Z,100.00
2022-09-30T02:42:53.058Z,100.00
2022-09-30T02:45:20.793Z,100.00
2022-09-30T02:47:50.182Z,100.00
2022-09-30T02:50:29.091Z,100.00
2022-09-30T02:53:27.973Z,100.00
2022-09-30T02:56:20.804Z,100.00
2022-09-30T02:58:47.211Z,100.00
2022-09-30T03:01:14.417Z,100.00
2022-09-30T03:03:40.920Z,100.00
2022-09-30T03:06:07.403Z,100.00
2022-09-30T03:08:33.809Z,100.00
2022-09-30T03:11:00.244Z,100.00
2022-09-30T03:13:49.985Z,100.00
2022-09-30T03:16:19.667Z,100.00
2022-09-30T03:18:52.635Z,100.00
2022-09-30T03:21:19.039Z,100.00
2022-09-30T03:23:57.655Z,100.00
2022-09-30T03:26:29.133Z,100.00
2022-09-30T03:29:24.898Z,100.00
2022-09-30T03:31:57.889Z,100.00
2022-09-30T03:34:33.270Z,100.00
2022-09-30T03:37:06.716Z,100.00
2022-09-30T03:39:42.223Z,100.00
2022-09-30T03:42:29.234Z,100.00
2022-09-30T03:45:04.954Z,100.00
2022-09-30T03:47:32.517Z,100.00
2022-09-30T03:50:00.399Z,100.00
2022-09-30T03:52:26.831Z,100.00
2022-09-30T03:54:54.717Z,100.00
2022-09-30T03:57:21.372Z,100.00
2022-09-30T03:59:47.793Z,100.00
2022-09-30T04:02:14.259Z,100.00
2022-09-30T04:04:43.605Z,100.00
2022-09-30T04:07:10.439Z,100.00
2022-09-30T04:09:37.303Z,100.00
2022-09-30T04:12:03.809Z,100.00
2022-09-30T04:14:30.228Z,100.00
2022-09-30T04:16:56.806Z,100.00
2022-09-30T04:19:23.312Z,100.00
2022-09-30T04:21:53.250Z,100.00
2022-09-30T04:24:20.279Z,100.00
2022-09-30T04:26:46.712Z,100.00
2022-09-30T04:29:13.144Z,100.00
2022-09-30T04:31:39.607Z,100.00
2022-09-30T04:34:06.277Z,100.00
2022-09-30T04:36:32.684Z,100.00
2022-09-30T04:38:59.135Z,100.00
2022-09-30T04:41:25.916Z,100.00
2022-09-30T04:43:52.354Z,100.00
2022-09-30T04:46:19.906Z,100.00
2022-09-30T04:48:46.884Z,100.00
2022-09-30T04:51:13.729Z,100.00
2022-09-30T04:53:40.216Z,100.00
2022-09-30T04:56:06.882Z,100.00
2022-09-30T04:58:36.794Z,100.00
2022-09-30T05:01:04.415Z,100.00
2022-09-30T05:03:30.851Z,100.00
2022-09-30T05:05:57.517Z,100.00
2022-09-30T05:08:24.038Z,100.00
2022-09-30T05:10:57.804Z,100.00
2022-09-30T05:13:30.886Z,100.00
2022-09-30T05:15:57.380Z,100.00
2022-09-30T05:18:26.388Z,100.00
2022-09-30T05:20:53.371Z,100.00
2022-09-30T05:23:20.081Z,100.00
2022-09-30T05:25:46.743Z,100.00
2022-09-30T05:28:13.445Z,100.00
2022-09-30T05:30:41.943Z,100.00
2022-09-30T05:33:08.440Z,100.00
2022-09-30T05:35:34.942Z,100.00
2022-09-30T05:38:03.397Z,100.00
2022-09-30T05:40:29.928Z,100.00
2022-09-30T05:42:56.928Z,100.00
2022-09-30T05:45:23.487Z,100.00
2022-09-30T05:47:53.485Z,100.00
2022-09-30T05:50:20.649Z,100.00
2022-09-30T05:52:47.143Z,100.00
2022-09-30T05:55:13.673Z,100.00
2022-09-30T05:57:40.075Z,100.00
2022-09-30T06:00:06.803Z,100.00
2022-09-30T06:02:33.819Z,100.00
2022-09-30T06:05:00.287Z,100.00
2022-09-30T06:07:26.687Z,100.00
2022-09-30T06:09:53.063Z,100.00
2022-09-30T06:12:19.472Z,100.00
2022-09-30T06:14:45.873Z,100.00
2022-09-30T06:17:12.358Z,100.00
2022-09-30T06:19:38.857Z,100.00
2022-09-30T06:22:05.302Z,100.00
2022-09-30T06:24:31.690Z,100.00
2022-09-30T06:26:58.150Z,100.00
2022-09-30T06:29:24.673Z,100.00
2022-09-30T06:31:51.148Z,100.00
2022-09-30T06:34:17.564Z,100.00
2022-09-30T06:36:43.986Z,100.00
2022-09-30T06:39:13.693Z,100.00
2022-09-30T06:41:44.161Z,100.00
2022-09-30T06:44:10.737Z,100.00
2022-09-30T06:46:47.094Z,100.00
2022-09-30T06:49:17.450Z,100.00
2022-09-30T06:51:43.897Z,100.00
2022-09-30T06:54:10.567Z,100.00
2022-09-30T06:56:37.151Z,100.00
2022-09-30T06:59:03.597Z,100.00
2022-09-30T07:01:30.145Z,100.00
2022-09-30T07:03:58.174Z,100.00
2022-09-30T07:06:26.030Z,100.00
2022-09-30T07:08:53.613Z,100.00
2022-09-30T07:11:20.124Z,100.00
2022-09-30T07:13:46.954Z,100.00
2022-09-30T07:16:14.174Z,100.00
2022-09-30T07:18:42.785Z,100.00
2022-09-30T07:21:09.836Z,100.00
2022-09-30T07:23:36.230Z,100.00
2022-09-30T07:26:04.634Z,100.00
2022-09-30T07:28:33.930Z,100.00
2022-09-30T07:31:30.790Z,100.00
2022-09-30T07:33:51.326Z,100.00
2022-09-30T07:36:18.828Z,100.00
2022-09-30T07:38:45.697Z,100.00
2022-09-30T07:41:13.158Z,100.00
2022-09-30T07:43:40.144Z,100.00
2022-09-30T07:46:10.287Z,100.00
2022-09-30T07:48:51.881Z,100.00
2022-09-30T07:51:19.457Z,100.00
2022-09-30T07:53:47.057Z,100.00
2022-09-30T07:56:14.478Z,100.00
2022-09-30T07:58:41.067Z,100.00
2022-09-30T08:01:07.527Z,100.00
2022-09-30T08:03:35.054Z,100.00
2022-09-30T08:06:12.830Z,100.00
2022-09-30T08:08:39.446Z,100.00
2022-09-30T08:11:06.208Z,100.00
2022-09-30T08:13:32.731Z,100.00
2022-09-30T08:15:59.231Z,100.00
2022-09-30T08:18:25.744Z,100.00
2022-09-30T08:20:52.155Z,100.00
2022-09-30T08:23:18.636Z,100.00
2022-09-30T08:25:45.088Z,100.00
2022-09-30T08:28:11.771Z,100.00
2022-09-30T08:30:38.253Z,100.00
2022-09-30T08:33:04.825Z,100.00
2022-09-30T08:35:31.378Z,100.00
2022-09-30T08:37:57.911Z,100.00
2022-09-30T08:40:31.739Z,100.00
2022-09-30T08:43:24.412Z,100.00
2022-09-30T08:45:53.880Z,100.00
2022-09-30T08:48:26.471Z,100.00
2022-09-30T08:50:56.031Z,100.00
2022-09-30T08:53:26.759Z,100.00
2022-09-30T08:55:53.233Z,100.00
2022-09-30T08:58:23.886Z,100.00
2022-09-30T09:00:50.507Z,100.00
2022-09-30T09:03:20.462Z,100.00
2022-09-30T09:05:56.674Z,100.00
2022-09-30T09:08:29.944Z,100.00
2022-09-30T09:11:02.848Z,100.00
2022-09-30T09:13:47.976Z,100.00
2022-09-30T09:16:26.550Z,100.00
2022-09-30T09:18:56.097Z,100.00
2022-09-30T09:21:32.193Z,100.00
2022-09-30T09:24:00.374Z,100.00
2022-09-30T09:26:26.944Z,100.00
2022-09-30T09:29:24.725Z,100.00
2022-09-30T09:31:51.400Z,100.00
2022-09-30T09:34:17.850Z,82.06
2022-09-30T09:36:56.591Z,71.62
2022-09-30T09:39:26.047Z,72.83
2022-09-30T09:42:17.124Z,66.16
2022-09-30T09:45:02.163Z,57.95
2022-09-30T09:47:28.583Z,55.94
2022-09-30T09:50:03.520Z,47.96
2022-09-30T09:52:48.784Z,52.28
2022-09-30T09:55:15.808Z,51.16
2022-09-30T09:57:42.286Z,55.53
2022-09-30T10:00:39.698Z,60.81
2022-09-30T10:03:12.048Z,56.40
2022-09-30T10:05:41.585Z,57.36
2022-09-30T10:08:09.850Z,55.72
2022-09-30T10:11:03.469Z,54.09
2022-09-30T10:13:39.134Z,55.41
2022-09-30T10:16:05.738Z,54.29
2022-09-30T10:18:33.748Z,53.76
2022-09-30T10:21:05.720Z,49.06
2022-09-30T10:23:36.806Z,41.52
2022-09-30T10:26:03.928Z,40.90
2022-09-30T10:28:31.887Z,41.54
2022-09-30T10:31:02.188Z,42.59
2022-09-30T10:33:30.441Z,40.31
2022-09-30T10:35:56.821Z,38.00
2022-09-30T10:38:29.121Z,39.06
2022-09-30T10:40:55.720Z,38.64
2022-09-30T10:43:27.089Z,39.06
2022-09-30T10:46:20.845Z,41.86
2022-09-30T10:48:40.019Z,40.86
2022-09-30T10:51:06.620Z,43.28
2022-09-30T10:53:33.734Z,35.57
2022-09-30T10:56:01.487Z,36.48
2022-09-30T10:58:27.919Z,33.81
2022-09-30T11:00:57.025Z,35.23
2022-09-30T11:03:35.181Z,34.33
2022-09-30T11:06:01.785Z,33.56
2022-09-30T11:09:00.668Z,32.83
2022-09-30T11:11:47.342Z,37.73
2022-09-30T11:14:32.669Z,31.37
2022-09-30T11:17:21.902Z,30.96
2022-09-30T11:19:52.197Z,31.32
2022-09-30T11:22:18.586Z,34.02
2022-09-30T11:24:45.686Z,36.41
2022-09-30T11:27:15.144Z,34.19
2022-09-30T11:29:47.706Z,29.47
2022-09-30T11:32:23.170Z,31.77
2022-09-30T11:35:07.867Z,34.40
2022-09-30T11:37:54.536Z,35.17
2022-09-30T11:40:30.999Z,36.51
2022-09-30T11:43:16.141Z,33.19
2022-09-30T11:45:54.153Z,38.88
2022-09-30T11:48:29.279Z,37.92
2022-09-30T11:51:17.081Z,40.65
2022-09-30T11:53:56.576Z,43.74
2022-09-30T11:56:29.439Z,42.12
2022-09-30T11:58:58.086Z,34.14
2022-09-30T12:01:26.021Z,33.01
2022-09-30T12:03:55.921Z,33.77
2022-09-30T12:06:28.615Z,30.95
2022-09-30T12:08:59.921Z,29.59
2022-09-30T12:11:43.613Z,28.67
2022-09-30T12:14:18.592Z,27.62
2022-09-30T12:16:45.429Z,29.53
2022-09-30T12:19:14.192Z,28.57
2022-09-30T12:21:42.685Z,26.67
2022-09-30T12:24:23.498Z,23.89
2022-09-30T12:26:49.939Z,22.90
2022-09-30T12:29:40.647Z,21.79
2022-09-30T12:32:30.976Z,24.41
2022-09-30T12:35:07.430Z,25.33
2022-09-30T12:37:36.943Z,23.03
2022-09-30T12:40:06.578Z,22.61
2022-09-30T12:42:45.806Z,21.95
2022-09-30T12:45:21.426Z,20.32
2022-09-30T12:47:51.775Z,20.01
2022-09-30T12:50:19.182Z,21.54
2022-09-30T12:52:45.639Z,21.36
2022-09-30T12:55:22.982Z,26.10
2022-09-30T12:57:49.371Z,26.80
2022-09-30T13:00:17.072Z,24.66
2022-09-30T13:02:44.358Z,28.51
2022-09-30T13:05:29.136Z,29.15
2022-09-30T13:08:04.699Z,30.99
2022-09-30T13:10:34.940Z,34.41
2022-09-30T13:13:10.438Z,37.95
2022-09-30T13:15:40.005Z,41.62
2022-09-30T13:18:32.811Z,40.62
2022-09-30T13:21:05.378Z,43.32
2022-09-30T13:23:47.747Z,43.79
2022-09-30T13:26:29.528Z,42.41
2022-09-30T13:29:02.625Z,43.91
2022-09-30T13:31:32.681Z,43.26
2022-09-30T13:34:02.284Z,42.10
2022-09-30T13:36:51.633Z,44.77
2022-09-30T13:39:31.755Z,45.56
2022-09-30T13:42:07.382Z,46.64
2022-09-30T13:44:44.579Z,44.59
2022-09-30T13:47:22.311Z,39.13
2022-09-30T13:49:52.998Z,35.10
2022-09-30T13:52:24.598Z,32.31
2022-09-30T13:54:51.207Z,34.45
2022-09-30T13:57:19.424Z,37.68
2022-09-30T13:59:45.829Z,41.00
2022-09-30T14:02:12.212Z,43.45
2022-09-30T14:04:41.616Z,45.97
2022-09-30T14:07:12.489Z,46.34
2022-09-30T14:09:47.203Z,47.52
2022-09-30T14:12:14.461Z,49.51
2022-09-30T14:15:02.345Z,48.92
2022-09-30T14:17:38.115Z,51.48
2022-09-30T14:20:24.155Z,52.70
2022-09-30T14:22:50.563Z,52.59
2022-09-30T14:25:17.638Z,52.40
2022-09-30T14:27:56.295Z,51.27
2022-09-30T14:30:23.800Z,50.43
2022-09-30T14:32:52.788Z,49.78
2022-09-30T14:35:20.582Z,51.16
2022-09-30T14:38:05.856Z,50.19
2022-09-30T14:40:33.145Z,52.56
2022-09-30T14:43:04.950Z,52.58
2022-09-30T14:45:33.048Z,54.47
2022-09-30T14:48:07.035Z,54.88
2022-09-30T14:50:37.855Z,56.25
2022-09-30T14:53:04.326Z,56.72
2022-09-30T14:55:31.990Z,58.75
2022-09-30T14:58:18.209Z,57.05
2022-09-30T15:00:45.420Z,57.80
2022-09-30T15:03:12.219Z,56.57
2022-09-30T15:05:39.163Z,58.09
2022-09-30T15:08:25.821Z,58.47
2022-09-30T15:10:55.933Z,54.11
2022-09-30T15:13:23.083Z,52.29
2022-09-30T15:15:49.512Z,53.22
2022-09-30T15:18:25.102Z,56.08
2022-09-30T15:20:55.319Z,54.26
2022-09-30T15:23:24.760Z,55.05
2022-09-30T15:25:52.175Z,56.08
2022-09-30T15:28:18.664Z,58.27
2022-09-30T15:30:45.283Z,58.19
2022-09-30T15:33:12.473Z,61.07
2022-09-30T15:35:38.969Z,59.58
2022-09-30T15:38:08.821Z,63.29
2022-09-30T15:40:48.522Z,63.81
2022-09-30T15:43:16.346Z,64.60
2022-09-30T15:45:43.999Z,65.96
2022-09-30T15:48:13.563Z,70.39
2022-09-30T15:50:41.266Z,68.54
2022-09-30T15:53:22.654Z,66.10
2022-09-30T15:56:15.883Z,69.27
2022-09-30T15:58:46.570Z,71.12
2022-09-30T16:01:18.433Z,71.06
2022-09-30T16:03:47.944Z,74.32
2022-09-30T16:06:14.446Z,76.54
2022-09-30T16:08:44.726Z,74.33
2022-09-30T16:11:19.111Z,79.32
2022-09-30T16:13:46.199Z,83.52
2022-09-30T16:16:18.641Z,84.92
2022-09-30T16:18:45.126Z,85.92
2022-09-30T16:21:27.518Z,83.80
2022-09-30T16:23:54.645Z,86.12
2022-09-30T16:26:24.398Z,93.17
2022-09-30T16:28:51.256Z,88.08
2022-09-30T16:31:17.915Z,93.49
2022-09-30T16:33:44.590Z,91.95
2022-09-30T16:36:11.789Z,94.01
2022-09-30T16:38:38.342Z,97.75
2022-09-30T16:41:04.960Z,100.00
2022-09-30T16:43:31.632Z,99.28
2022-09-30T16:45:58.311Z,100.00
2022-09-30T16:48:26.142Z,100.00
2022-09-30T16:50:55.627Z,100.00
2022-09-30T16:53:22.100Z,100.00
2022-09-30T16:55:48.532Z,100.00
2022-09-30T16:58:15.199Z,100.00
2022-09-30T17:00:44.450Z,100.00
2022-09-30T17:03:15.120Z,100.00
2022-09-30T17:05:42.751Z,100.00
2022-09-30T17:08:09.718Z,100.00
2022-09-30T17:10:36.666Z,100.00
2022-09-30T17:13:03.642Z,100.00
2022-09-30T17:15:30.937Z,100.00
2022-09-30T17:17:58.004Z,100.00
2022-09-30T17:20:24.727Z,100.00
2022-09-30T17:22:51.162Z,100.00
2022-09-30T17:25:17.594Z,100.00
2022-09-30T17:27:46.516Z,100.00
2022-09-30T17:30:13.008Z,100.00
2022-09-30T17:32:39.457Z,100.00
2022-09-30T17:35:08.842Z,100.00
2022-09-30T17:37:37.488Z,100.00
2022-09-30T17:40:26.086Z,100.00
2022-09-30T17:43:07.807Z,100.00
2022-09-30T17:45:34.551Z,100.00
2022-09-30T17:48:01.111Z,100.00
2022-09-30T17:50:27.973Z,100.00
2022-09-30T17:52:54.404Z,100.00
2022-09-30T17:55:20.776Z,100.00
2022-09-30T17:57:47.175Z,94.08
2022-09-30T18:00:13.595Z,89.53
2022-09-30T18:02:41.955Z,88.41
2022-09-30T18:05:08.518Z,88.81
2022-09-30T18:07:34.914Z,89.71
2022-09-30T18:10:02.435Z,88.72
2022-09-30T18:12:28.876Z,86.57
2022-09-30T18:14:56.125Z,88.56
2022-09-30T18:17:23.438Z,89.72
2022-09-30T18:19:49.830Z,88.53
2022-09-30T18:22:16.263Z,92.83
2022-09-30T18:25:01.444Z,99.65
2022-09-30T18:27:33.806Z,91.97
2022-09-30T18:30:01.336Z,96.98
2022-09-30T18:32:28.636Z,98.32
2022-09-30T18:34:56.340Z,100.00
2022-09-30T18:37:23.389Z,100.00
2022-09-30T18:39:49.882Z,100.00
2022-09-30T18:42:18.845Z,100.00
2022-09-30T18:44:45.303Z,98.84
2022-09-30T18:47:11.732Z,97.81
2022-09-30T18:49:38.148Z,100.00
2022-09-30T18:52:04.697Z,100.00
2022-09-30T18:54:31.207Z,100.00
2022-09-30T18:56:57.623Z,100.00
2022-09-30T18:59:24.287Z,100.00
2022-09-30T19:01:51.024Z,100.00
2022-09-30T19:04:17.528Z,100.00
2022-09-30T19:06:44.506Z,100.00
2022-09-30T19:09:11.021Z,100.00
2022-09-30T19:11:37.460Z,100.00
2022-09-30T19:14:05.690Z,100.00
2022-09-30T19:16:36.663Z,100.00
2022-09-30T19:19:05.066Z,100.00
2022-09-30T19:21:35.319Z,100.00
2022-09-30T19:24:03.231Z,100.00
2022-09-30T19:26:30.309Z,100.00
2022-09-30T19:28:57.115Z,100.00
2022-09-30T19:31:24.029Z,100.00
2022-09-30T19:33:56.490Z,100.00
2022-09-30T19:36:24.017Z,100.00
2022-09-30T19:38:51.920Z,100.00
2022-09-30T19:41:20.256Z,100.00
2022-09-30T19:43:50.213Z,100.00
2022-09-30T19:46:16.765Z,100.00
2022-09-30T19:48:43.246Z,100.00
2022-09-30T19:51:13.693Z,100.00
2022-09-30T19:53:42.252Z,100.00
2022-09-30T19:56:16.777Z,100.00
2022-09-30T19:58:44.543Z,100.00
2022-09-30T20:01:11.988Z,100.00
2022-09-30T20:03:38.767Z,100.00
2022-09-30T20:06:06.226Z,100.00
2022-09-30T20:08:33.396Z,100.00
2022-09-30T20:11:07.353Z,100.00
2022-09-30T20:13:33.775Z,100.00
2022-09-30T20:16:01.185Z,100.00
2022-09-30T20:18:28.839Z,100.00
2022-09-30T20:20:55.326Z,100.00
2022-09-30T20:23:22.395Z,100.00
2022-09-30T20:25:49.159Z,100.00
2022-09-30T20:28:15.765Z,100.00
2022-09-30T20:30:48.239Z,100.00
2022-09-30T20:33:15.537Z,100.00
2022-09-30T20:35:42.008Z,100.00
2022-09-30T20:38:12.307Z,100.00
2022-09-30T20:40:40.107Z,100.00
2022-09-30T20:43:07.403Z,100.00
2022-09-30T20:45:34.263Z,100.00
2022-09-30T20:48:01.013Z,100.00
2022-09-30T20:50:36.514Z,100.00
2022-09-30T20:53:10.304Z,100.00
2022-09-30T20:55:38.026Z,100.00
2022-09-30T20:58:04.989Z,100.00
2022-09-30T21:00:32.244Z,100.00
2022-09-30T21:02:58.744Z,100.00
2022-09-30T21:05:25.359Z,100.00
2022-09-30T21:07:51.826Z,100.00
2022-09-30T21:10:18.232Z,100.00
2022-09-30T21:12:45.035Z,100.00
2022-09-30T21:15:12.149Z,100.00
2022-09-30T21:17:40.336Z,100.00
2022-09-30T21:20:07.085Z,100.00
2022-09-30T21:22:33.490Z,100.00
2022-09-30T21:24:59.907Z,100.00
2022-09-30T21:27:26.281Z,100.00
2022-09-30T21:29:53.111Z,100.00
2022-09-30T21:32:20.525Z,100.00
2022-09-30T21:34:46.949Z,100.00
2022-09-30T21:37:13.369Z,100.00
2022-09-30T21:39:39.800Z,100.00
2022-09-30T21:42:06.176Z,100.00
2022-09-30T21:44:32.645Z,100.00
2022-09-30T21:46:59.076Z,100.00
2022-09-30T21:49:25.556Z,100.00
2022-09-30T21:51:53.370Z,100.00
2022-09-30T21:54:19.848Z,100.00
2022-09-30T21:56:46.379Z,100.00
2022-09-30T21:59:12.984Z,100.00
2022-09-30T22:01:39.556Z,100.00
2022-09-30T22:04:07.087Z,100.00
2022-09-30T22:06:33.552Z,100.00
2022-09-30T22:09:03.031Z,100.00
2022-09-30T22:11:30.197Z,100.00
2022-09-30T22:13:57.557Z,100.00
2022-09-30T22:16:27.038Z,100.00
2022-09-30T22:18:54.156Z,100.00
2022-09-30T22:21:20.569Z,100.00
2022-09-30T22:23:47.662Z,100.00
2022-09-30T22:26:18.518Z,100.00
2022-09-30T22:28:45.618Z,100.00
2022-09-30T22:31:19.432Z,100.00
2022-09-30T22:34:05.410Z,100.00
2022-09-30T22:36:50.526Z,100.00
2022-09-30T22:39:18.089Z,100.00
2022-09-30T22:41:45.048Z,100.00
2022-09-30T22:44:11.600Z,100.00
2022-09-30T22:46:38.371Z,100.00
2022-09-30T22:49:05.723Z,100.00
2022-09-30T22:51:35.416Z,100.00
2022-09-30T22:54:03.402Z,100.00
2022-09-30T22:56:30.418Z,100.00
2022-09-30T22:58:56.894Z,100.00
2022-09-30T23:01:23.298Z,100.00
2022-09-30T23:03:55.760Z,100.00
2022-09-30T23:06:22.931Z,100.00
2022-09-30T23:08:49.486Z,100.00
2022-09-30T23:11:19.432Z,100.00
2022-09-30T23:13:46.390Z,100.00
2022-09-30T23:16:13.195Z,100.00
2022-09-30T23:18:42.607Z,100.00
2022-09-30T23:21:13.511Z,100.00
2022-09-30T23:23:40.290Z,100.00
2022-09-30T23:26:25.915Z,100.00
2022-09-30T23:28:52.812Z,100.00
2022-09-30T23:31:19.330Z,100.00
2022-09-30T23:33:47.120Z,100.00
2022-09-30T23:36:15.087Z,100.00
2022-09-30T23:38:41.636Z,100.00
2022-09-30T23:41:08.221Z,100.00
2022-09-30T23:43:35.086Z,100.00
2022-09-30T23:46:01.718Z,100.00
2022-09-30T23:48:28.344Z,100.00
2022-09-30T23:50:54.866Z,100.00
2022-09-30T23:53:22.035Z,100.00
2022-09-30T23:55:59.166Z,100.00
2022-09-30T23:58:26.165Z,100.00
